Pagrindinis puslapis
METAR-TAF:

METAR-TAF

Oro uostai :

Kiurasao, Nyderlandų Antilai

platuma: 12-12N, ilguma: 068-58W, Aukštis: 9 m

Dabartinis oras

Ataskaita buvo paskelbta 1 valandą ir 9 minutes, ne 04:00 UTC
Vėjas 12 kt iš Rytų/Pietryčių
Temperatūra 27°C
Drėgmė 79%
Slėgis 1014 hPa
Matomumas 10 km arba daugiau
Mažai debesys ne aukštis 1800 ft

METAR: TNCC 290400Z 11012KT 9999 FEW018 27/23 Q1014 NOSIG

Laikas: 01:09 (05:09 UTC)

Prognozė

Ataskaita buvo paskelbta 5 valandos ir 54 minutes, ne 23:15 UTC
Prognozė galioja nuo 29 metu 00 UTC su 29 metu 24 UTC
Vėjas 13 kt iš Rytų
Matomumas 10 km arba daugiau
Išsisklaidę debesys ne aukštis 2000 ft

TAF: TNCC 282315Z 2900/2924 10013KT 9999 SCT020

Orai ataskaitas ir orų prognozės (METAR, TAF).

turimą stotys yra geltonos ir raudonos taškus žemėlapyje.

Perkelti pele per norėdami pamatyti stoties vardą.

Tada spustelėkite, norėdami matyti oro stebėjimo ir prognozės.

Norėdami pakeisti žemėlapį: spustelėkite ant žalios mygtukų su juodo kryžiaus žemyn,; žalią mygtuką su brūkšneliu, jei norite nutolinti; arba žalių rodyklių gretimoms žemėlapius.


METAR-TAF: